Time;durP1;ratioP1;P1;durP2;ratioP2;P2;SDS_P1;SDS_P2;PMS_P1;PMS_P2;Temp;Humidity;BMP_temperature;BMP_pressure;BME280_temperature;BME280_humidity;BME280_pressure;Samples;Min_cycle;Max_cycle;Signal;HPM_P1;HPM_P2
2022/01/09 00:00:30;;;;;;;8.50;7.60;;;5.80;99.90;;;;;;5122187;27;20043;-76
2022/01/09 00:02:56;;;;;;;10.35;8.10;;;5.80;99.90;;;;;;5122754;27;20043;-70
2022/01/09 00:05:23;;;;;;;9.25;8.27;;;5.90;99.90;;;;;;5106451;27;20054;-73
2022/01/09 00:07:49;;;;;;;9.23;7.57;;;6.40;99.90;;;;;;5125054;27;20065;-72
2022/01/09 00:10:18;;;;;;;9.00;6.65;;;6.40;99.90;;;;;;5110082;27;20146;-72
2022/01/09 00:12:44;;;;;;;9.35;7.93;;;5.80;99.90;;;;;;5091513;27;20992;-72
2022/01/09 00:15:10;;;;;;;10.20;8.55;;;6.40;99.90;;;;;;5083208;28;20043;-75
2022/01/09 00:17:36;;;;;;;9.18;8.02;;;6.50;99.90;;;;;;5095900;27;20608;-71
2022/01/09 00:20:04;;;;;;;8.02;6.38;;;6.40;99.90;;;;;;5102294;28;20042;-74
2022/01/09 00:22:41;;;;;;;10.05;8.07;;;5.90;99.90;;;;;;5100916;27;20050;-76
2022/01/09 00:25:08;;;;;;;9.43;7.38;;;6.70;99.90;;;;;;5132409;27;20046;-75
2022/01/09 00:27:36;;;;;;;9.82;7.97;;;6.40;99.90;;;;;;5132300;27;20030;-74
2022/01/09 00:30:05;;;;;;;14.93;10.30;;;5.90;99.90;;;;;;5131501;27;20078;-76
2022/01/09 00:32:31;;;;;;;11.02;9.00;;;5.90;99.90;;;;;;5128879;27;20045;-75
2022/01/09 00:34:57;;;;;;;9.05;7.63;;;6.30;99.90;;;;;;5130318;27;20091;-75
2022/01/09 00:37:23;;;;;;;9.60;7.32;;;5.90;99.90;;;;;;5093380;27;20359;-78
2022/01/09 00:39:48;;;;;;;11.32;9.15;;;6.50;99.90;;;;;;5126611;27;20054;-75
2022/01/09 00:42:14;;;;;;;10.75;8.77;;;6.40;99.90;;;;;;5111732;27;20030;-77
2022/01/09 00:44:40;;;;;;;8.23;7.18;;;5.90;99.90;;;;;;5135540;27;20465;-76
2022/01/09 00:47:06;;;;;;;10.52;7.82;;;6.40;99.90;;;;;;5117092;27;20024;-77
2022/01/09 00:49:34;;;;;;;9.57;7.57;;;5.90;99.90;;;;;;5095658;27;20053;-76
2022/01/09 00:52:00;;;;;;;9.18;7.75;;;6.50;99.90;;;;;;5105689;27;20479;-76
2022/01/09 00:54:25;;;;;;;10.73;7.07;;;5.90;99.90;;;;;;5098655;27;20039;-75
2022/01/09 00:56:51;;;;;;;8.48;7.07;;;5.80;99.90;;;;;;5107633;27;20443;-74
2022/01/09 00:59:17;;;;;;;8.98;7.65;;;6.60;99.90;;;;;;5097166;27;20562;-76
2022/01/09 01:01:43;;;;;;;6.47;5.00;;;6.70;99.90;;;;;;5120001;27;20049;-75
2022/01/09 01:04:08;;;;;;;9.85;8.48;;;6.50;99.90;;;;;;5113494;27;20121;-75
2022/01/09 01:06:34;;;;;;;9.85;8.85;;;5.90;99.90;;;;;;5092234;27;20059;-75
2022/01/09 01:09:00;;;;;;;7.85;5.90;;;6.00;99.90;;;;;;5107558;27;20050;-75
2022/01/09 01:11:25;;;;;;;11.02;8.27;;;6.50;99.90;;;;;;5114164;27;20066;-75
2022/01/09 01:13:51;;;;;;;8.85;7.82;;;6.40;99.90;;;;;;5113933;27;20043;-76
2022/01/09 01:16:17;;;;;;;8.38;6.43;;;6.40;99.90;;;;;;5082696;27;20502;-75
2022/01/09 01:18:45;;;;;;;10.30;8.65;;;6.50;99.90;;;;;;5131651;27;20038;-75
2022/01/09 01:21:11;;;;;;;9.65;6.80;;;6.50;99.90;;;;;;5117518;27;20042;-72
2022/01/09 01:23:37;;;;;;;7.00;5.88;;;6.20;99.90;;;;;;5123647;27;20039;-74
2022/01/09 01:26:02;;;;;;;11.98;9.75;;;6.20;99.90;;;;;;5103863;27;20784;-74
2022/01/09 01:28:30;;;;;;;11.05;8.60;;;6.10;99.90;;;;;;5109863;27;20035;-76
2022/01/09 01:30:55;;;;;;;9.65;7.28;;;5.80;99.90;;;;;;5114101;27;20039;-76
2022/01/09 01:33:22;;;;;;;9.90;7.45;;;5.90;99.90;;;;;;5128176;27;20039;-73
2022/01/09 01:35:48;;;;;;;13.10;9.55;;;5.90;99.90;;;;;;5135736;27;20121;-75
2022/01/09 01:38:14;;;;;;;9.10;7.30;;;5.90;99.90;;;;;;5117831;27;20117;-77
2022/01/09 01:40:40;;;;;;;11.48;8.77;;;6.00;99.90;;;;;;5101166;27;20042;-76
2022/01/09 01:43:07;;;;;;;11.35;9.05;;;6.40;99.90;;;;;;5100554;27;20040;-74
2022/01/09 01:45:33;;;;;;;14.13;10.27;;;6.40;99.90;;;;;;5098053;27;20043;-73
2022/01/09 01:48:05;;;;;;;10.20;7.45;;;6.30;99.90;;;;;;5114953;27;20051;-77
2022/01/09 01:50:37;;;;;;;12.52;9.52;;;6.30;99.90;;;;;;5103276;27;20408;-75
2022/01/09 01:53:13;;;;;;;11.43;8.70;;;6.40;99.90;;;;;;5134620;27;20043;-77
2022/01/09 01:55:41;;;;;;;13.18;10.32;;;5.90;99.90;;;;;;5097185;27;20121;-77
2022/01/09 01:58:10;;;;;;;10.85;8.77;;;6.10;99.90;;;;;;5114852;27;20043;-79
2022/01/09 02:00:37;;;;;;;13.40;10.95;;;6.10;99.90;;;;;;5120167;27;20119;-74
2022/01/09 02:03:03;;;;;;;12.63;9.80;;;6.60;99.90;;;;;;5100715;27;20035;-77
2022/01/09 02:05:29;;;;;;;13.55;10.65;;;6.20;99.90;;;;;;5134664;27;20043;-75
2022/01/09 02:07:58;;;;;;;12.38;10.25;;;6.60;99.90;;;;;;5134643;27;20150;-75
2022/01/09 02:10:24;;;;;;;14.65;11.25;;;6.50;99.90;;;;;;5117934;27;20081;-75
2022/01/09 02:12:52;;;;;;;14.52;11.15;;;6.70;99.90;;;;;;5134911;27;20034;-73
2022/01/09 02:15:29;;;;;;;14.40;10.85;;;6.30;99.90;;;;;;5116829;27;20042;-73
2022/01/09 02:17:55;;;;;;;13.70;11.27;;;6.70;99.90;;;;;;5134980;27;20069;-74
2022/01/09 02:20:22;;;;;;;13.98;10.52;;;6.60;99.90;;;;;;5095237;27;20067;-71
2022/01/09 02:22:47;;;;;;;16.67;12.30;;;6.00;99.90;;;;;;5117696;27;20085;-75
2022/01/09 02:25:15;;;;;;;14.52;10.90;;;6.60;99.90;;;;;;5117470;27;20066;-73
2022/01/09 02:27:40;;;;;;;13.95;11.10;;;6.10;99.90;;;;;;5101162;27;20131;-74
2022/01/09 02:30:07;;;;;;;15.07;12.25;;;6.70;99.90;;;;;;5134840;27;20070;-73
2022/01/09 02:32:33;;;;;;;15.18;11.63;;;6.10;99.90;;;;;;5135337;27;20041;-75
2022/01/09 02:34:58;;;;;;;15.25;12.23;;;6.60;99.90;;;;;;5117113;27;21544;-73
2022/01/09 02:37:24;;;;;;;16.65;12.23;;;7.40;99.90;;;;;;5134263;27;20047;-72
2022/01/09 02:39:50;;;;;;;17.52;12.93;;;6.10;99.90;;;;;;5097661;27;20112;-74
2022/01/09 02:42:28;;;;;;;17.13;13.38;;;6.20;99.90;;;;;;5131006;27;20067;-76
2022/01/09 02:44:57;;;;;;;21.63;13.95;;;6.70;99.90;;;;;;5133861;27;20041;-76
2022/01/09 02:47:32;;;;;;;21.38;14.48;;;6.50;99.90;;;;;;5116871;27;20071;-77
2022/01/09 02:50:06;;;;;;;23.98;15.82;;;6.10;99.90;;;;;;5134451;27;20042;-76
2022/01/09 02:52:35;;;;;;;24.52;15.10;;;6.90;99.90;;;;;;5118837;27;20045;-74
2022/01/09 02:55:14;;;;;;;19.90;13.90;;;6.70;99.90;;;;;;5134281;27;20035;-73
2022/01/09 02:57:45;;;;;;;26.58;16.23;;;6.30;99.90;;;;;;5133429;27;20091;-74
2022/01/09 03:00:25;;;;;;;21.17;14.15;;;6.80;99.90;;;;;;5133580;27;20099;-78
2022/01/09 03:02:51;;;;;;;20.25;13.90;;;6.40;99.90;;;;;;5134668;27;20031;-76
2022/01/09 03:05:17;;;;;;;18.05;12.40;;;7.00;99.90;;;;;;5116284;27;20030;-74
2022/01/09 03:07:44;;;;;;;13.68;10.20;;;7.20;99.90;;;;;;5116766;27;20483;-77
2022/01/09 03:10:13;;;;;;;15.32;9.57;;;7.10;99.90;;;;;;5133456;27;20432;-74
2022/01/09 03:12:39;;;;;;;13.20;8.18;;;7.20;99.90;;;;;;5133409;27;20078;-75
2022/01/09 03:15:06;;;;;;;11.55;7.15;;;7.50;99.90;;;;;;5116316;27;20084;-78
2022/01/09 03:17:32;;;;;;;12.55;6.88;;;7.40;99.90;;;;;;5099440;27;20042;-75
2022/01/09 03:19:58;;;;;;;13.65;6.25;;;7.50;99.90;;;;;;5133211;27;20042;-76
2022/01/09 03:22:24;;;;;;;10.85;5.90;;;7.50;99.90;;;;;;5133587;27;20034;-73
2022/01/09 03:24:50;;;;;;;10.90;5.35;;;7.40;99.90;;;;;;5133229;27;20034;-74
2022/01/09 03:27:16;;;;;;;10.38;4.70;;;7.00;99.90;;;;;;5132432;27;20102;-74
2022/01/09 03:29:42;;;;;;;14.10;5.53;;;7.40;99.90;;;;;;5133552;27;20099;-71
2022/01/09 03:32:08;;;;;;;14.00;4.50;;;6.90;99.90;;;;;;5096057;27;20035;-74
2022/01/09 03:34:34;;;;;;;19.13;4.50;;;7.80;99.90;;;;;;5130413;27;20046;-74
2022/01/09 03:37:01;;;;;;;14.60;3.22;;;7.70;99.90;;;;;;5113838;27;20047;-75
2022/01/09 03:39:26;;;;;;;13.45;3.00;;;7.50;99.90;;;;;;5116340;27;20095;-76
2022/01/09 03:41:54;;;;;;;13.27;3.13;;;7.40;99.90;;;;;;5134092;27;20475;-76
2022/01/09 03:44:20;;;;;;;15.68;3.33;;;7.50;99.90;;;;;;5116459;27;20031;-75
2022/01/09 03:46:46;;;;;;;14.02;2.72;;;7.90;99.90;;;;;;5090427;27;20039;-76
2022/01/09 03:49:12;;;;;;;11.77;2.92;;;7.70;99.90;;;;;;5116347;27;20042;-74
2022/01/09 03:51:39;;;;;;;18.92;3.55;;;7.80;99.90;;;;;;5112607;27;20371;-73
2022/01/09 03:54:08;;;;;;;21.27;3.25;;;8.00;99.90;;;;;;5106280;27;20070;-74
2022/01/09 03:56:33;;;;;;;15.40;2.97;;;7.90;99.90;;;;;;5115147;27;20074;-76
2022/01/09 03:58:59;;;;;;;15.90;3.25;;;7.30;99.90;;;;;;5094840;27;20039;-73
2022/01/09 04:01:26;;;;;;;14.30;2.40;;;7.40;99.90;;;;;;5108671;27;20409;-72
2022/01/09 04:03:52;;;;;;;16.63;3.67;;;7.60;99.90;;;;;;5116729;27;20031;-77
2022/01/09 04:06:18;;;;;;;15.90;3.40;;;7.90;99.90;;;;;;5133184;27;20046;-76
2022/01/09 04:08:44;;;;;;;20.35;2.67;;;7.00;99.90;;;;;;5114246;27;20099;-76
2022/01/09 04:11:14;;;;;;;12.85;2.33;;;7.80;99.90;;;;;;5116013;27;20051;-75
2022/01/09 04:13:40;;;;;;;11.85;2.83;;;7.80;99.90;;;;;;5132460;27;20450;-74
2022/01/09 04:16:05;;;;;;;11.95;2.00;;;7.80;99.90;;;;;;5133086;27;20126;-76
2022/01/09 04:18:31;;;;;;;13.18;2.67;;;7.10;99.90;;;;;;5115063;27;20220;-74
2022/01/09 04:20:58;;;;;;;15.77;2.70;;;7.40;99.90;;;;;;5132833;27;20391;-75
2022/01/09 04:23:24;;;;;;;16.33;2.95;;;7.40;99.90;;;;;;5132537;27;20084;-76
2022/01/09 04:25:51;;;;;;;15.73;3.63;;;7.80;99.90;;;;;;5115663;27;20423;-75
2022/01/09 04:28:17;;;;;;;18.10;2.90;;;7.80;99.90;;;;;;5095131;28;20414;-73
2022/01/09 04:30:44;;;;;;;18.80;2.88;;;7.00;99.90;;;;;;5130982;27;20038;-74
2022/01/09 04:33:10;;;;;;;31.42;6.40;;;7.10;99.90;;;;;;5133132;27;20035;-71
2022/01/09 04:35:37;;;;;;;23.42;4.40;;;7.70;99.90;;;;;;5131479;27;20470;-73
2022/01/09 04:38:03;;;;;;;30.05;3.65;;;7.50;99.90;;;;;;5115167;27;20074;-73
2022/01/09 04:40:29;;;;;;;36.80;5.35;;;8.20;99.90;;;;;;5114681;27;20042;-73
2022/01/09 04:42:58;;;;;;;34.30;6.03;;;8.10;99.90;;;;;;5099116;27;20031;-73
2022/01/09 04:45:26;;;;;;;39.20;5.43;;;8.30;99.90;;;;;;5114705;27;20062;-74
2022/01/09 04:47:53;;;;;;;41.78;5.20;;;8.50;99.90;;;;;;5129780;28;20070;-72
2022/01/09 04:50:25;;;;;;;37.90;4.43;;;8.10;99.90;;;;;;5131376;27;20056;-73
2022/01/09 04:52:57;;;;;;;39.35;4.90;;;8.50;99.90;;;;;;5129141;28;20043;-73
2022/01/09 04:55:23;;;;;;;31.73;4.95;;;7.50;99.90;;;;;;5112247;28;20049;-73
2022/01/09 04:57:49;;;;;;;30.17;4.82;;;7.60;99.90;;;;;;5111711;28;20117;-74
2022/01/09 05:00:17;;;;;;;32.15;4.68;;;7.60;99.90;;;;;;5097407;28;20108;-72
2022/01/09 05:02:46;;;;;;;31.45;5.75;;;8.40;99.90;;;;;;5079580;28;20039;-75
2022/01/09 05:05:12;;;;;;;24.00;3.47;;;7.90;99.90;;;;;;5118258;27;20070;-75
2022/01/09 05:07:39;;;;;;;32.28;4.72;;;7.70;99.90;;;;;;5131954;27;20038;-75
2022/01/09 05:10:06;;;;;;;24.90;4.35;;;8.40;99.90;;;;;;5132344;27;20561;-72
2022/01/09 05:12:32;;;;;;;29.50;4.50;;;8.00;99.90;;;;;;5132016;27;20494;-77
2022/01/09 05:14:58;;;;;;;28.90;5.25;;;8.30;99.90;;;;;;5112211;28;20035;-73
2022/01/09 05:17:23;;;;;;;33.97;4.07;;;8.10;99.90;;;;;;5103184;28;20050;-75
2022/01/09 05:19:52;;;;;;;30.17;4.78;;;8.40;99.90;;;;;;5094491;27;20087;-74
2022/01/09 05:22:18;;;;;;;31.02;5.13;;;7.60;99.90;;;;;;5112681;27;20095;-75
2022/01/09 05:24:44;;;;;;;28.00;4.57;;;7.90;99.90;;;;;;5132239;27;20042;-73
2022/01/09 05:27:10;;;;;;;23.63;4.03;;;8.00;99.90;;;;;;5117760;27;20057;-72
2022/01/09 05:29:36;;;;;;;44.17;5.10;;;8.10;99.90;;;;;;5118409;27;20038;-73
2022/01/09 05:32:02;;;;;;;30.25;6.40;;;7.60;99.90;;;;;;5100839;27;20076;-76
2022/01/09 05:34:28;;;;;;;34.05;5.40;;;7.40;99.90;;;;;;5135774;27;20039;-73
2022/01/09 05:36:54;;;;;;;33.70;3.97;;;8.10;99.90;;;;;;5136285;27;20038;-74
2022/01/09 05:39:19;;;;;;;23.73;4.47;;;7.90;99.90;;;;;;5135702;27;20366;-73
2022/01/09 05:41:46;;;;;;;20.20;2.78;;;7.50;99.90;;;;;;5117949;27;20066;-75
2022/01/09 05:44:12;;;;;;;17.67;3.28;;;7.30;99.90;;;;;;5118712;27;20038;-76
2022/01/09 05:46:38;;;;;;;30.48;5.50;;;8.10;99.90;;;;;;5117738;27;20035;-77
2022/01/09 05:49:03;;;;;;;13.32;3.58;;;7.60;99.90;;;;;;5135068;27;20138;-72
2022/01/09 05:51:30;;;;;;;27.90;3.70;;;7.80;99.90;;;;;;5116586;27;20095;-74
2022/01/09 05:53:55;;;;;;;18.10;4.22;;;7.30;99.90;;;;;;5118231;27;20126;-73
2022/01/09 05:56:21;;;;;;;24.52;3.47;;;7.70;99.90;;;;;;5135466;27;20125;-73
2022/01/09 05:58:47;;;;;;;22.45;4.05;;;7.80;99.90;;;;;;5114697;27;20088;-72
2022/01/09 06:01:12;;;;;;;23.55;3.30;;;7.20;99.90;;;;;;5103067;27;20037;-76
2022/01/09 06:03:38;;;;;;;20.38;5.47;;;7.90;99.90;;;;;;5087519;27;20030;-72
2022/01/09 06:06:04;;;;;;;20.88;4.13;;;7.50;99.90;;;;;;5128675;27;20117;-73
2022/01/09 06:08:30;;;;;;;23.95;4.03;;;7.50;99.90;;;;;;5133760;27;20051;-72
2022/01/09 06:10:56;;;;;;;20.45;3.60;;;7.60;99.90;;;;;;5134909;27;20047;-73
2022/01/09 06:13:21;;;;;;;20.77;3.63;;;7.70;99.90;;;;;;5134529;27;20055;-73
2022/01/09 06:15:47;;;;;;;21.67;3.70;;;6.90;99.90;;;;;;5115924;27;20060;-75
2022/01/09 06:18:13;;;;;;;17.50;3.10;;;7.40;99.90;;;;;;5132738;27;20042;-73
2022/01/09 06:20:40;;;;;;;29.42;4.70;;;7.60;99.90;;;;;;5133512;27;20038;-76
2022/01/09 06:23:06;;;;;;;23.83;3.30;;;7.50;99.90;;;;;;5115616;27;20089;-73
2022/01/09 06:25:31;;;;;;;18.08;3.10;;;7.30;99.90;;;;;;5133289;27;20759;-74
2022/01/09 06:27:57;;;;;;;17.63;3.05;;;6.80;99.90;;;;;;5133976;27;20410;-73
2022/01/09 06:30:23;;;;;;;14.02;2.83;;;6.80;99.90;;;;;;5117228;27;20125;-74
2022/01/09 06:32:48;;;;;;;12.32;3.55;;;7.20;99.90;;;;;;5133723;27;20098;-73
2022/01/09 06:35:14;;;;;;;20.95;3.60;;;6.80;99.90;;;;;;5130435;27;20035;-77
2022/01/09 06:37:40;;;;;;;22.65;4.18;;;7.00;99.90;;;;;;5116139;27;20030;-73
2022/01/09 06:40:07;;;;;;;15.05;3.40;;;6.80;99.90;;;;;;5112575;27;20038;-73
2022/01/09 06:42:32;;;;;;;24.33;3.58;;;7.10;99.90;;;;;;5132071;27;20078;-71
2022/01/09 06:44:58;;;;;;;15.65;3.22;;;6.80;99.90;;;;;;5116713;27;20076;-74
2022/01/09 06:47:24;;;;;;;18.92;4.38;;;6.90;99.90;;;;;;5116606;27;20046;-72
2022/01/09 06:49:50;;;;;;;20.10;2.72;;;6.70;99.90;;;;;;5116276;27;20039;-74
2022/01/09 06:52:16;;;;;;;22.00;3.17;;;6.60;99.90;;;;;;5092299;27;20031;-71
2022/01/09 06:54:41;;;;;;;15.68;2.60;;;6.80;99.90;;;;;;5115580;27;20063;-73
2022/01/09 06:57:07;;;;;;;14.70;2.60;;;6.40;99.90;;;;;;5133443;27;20030;-71
2022/01/09 06:59:33;;;;;;;20.08;3.38;;;6.40;99.90;;;;;;5077269;27;20042;-71
2022/01/09 07:01:59;;;;;;;19.40;3.17;;;6.40;99.90;;;;;;5098493;27;20038;-74
2022/01/09 07:04:24;;;;;;;15.02;2.53;;;6.80;99.90;;;;;;5112948;27;20486;-70
2022/01/09 07:06:50;;;;;;;15.98;3.80;;;6.50;99.90;;;;;;5132784;27;20711;-75
2022/01/09 07:09:16;;;;;;;16.27;2.42;;;6.30;99.90;;;;;;5116113;27;20159;-74
2022/01/09 07:11:42;;;;;;;18.90;2.83;;;6.60;99.90;;;;;;5132430;27;20069;-78
2022/01/09 07:14:07;;;;;;;16.38;4.28;;;6.20;99.90;;;;;;5089442;27;20107;-74
2022/01/09 07:16:33;;;;;;;17.80;2.88;;;6.50;99.90;;;;;;5114663;27;20038;-75
2022/01/09 07:18:59;;;;;;;22.48;3.13;;;7.00;99.90;;;;;;5133181;27;20046;-73
2022/01/09 07:21:25;;;;;;;18.10;2.45;;;6.30;99.90;;;;;;5132710;27;20062;-73
2022/01/09 07:23:51;;;;;;;21.85;2.92;;;6.50;99.90;;;;;;5076754;27;20035;-75
2022/01/09 07:26:16;;;;;;;15.93;2.60;;;6.60;99.90;;;;;;5096579;27;20030;-76
2022/01/09 07:28:42;;;;;;;18.38;3.40;;;6.30;99.90;;;;;;5115498;27;20091;-73
2022/01/09 07:31:08;;;;;;;18.33;2.38;;;6.60;99.90;;;;;;5132969;27;20034;-74
2022/01/09 07:33:33;;;;;;;21.92;3.50;;;6.60;99.90;;;;;;5096929;27;20039;-74
2022/01/09 07:35:59;;;;;;;14.63;2.53;;;6.50;99.90;;;;;;5072247;27;20038;-73
2022/01/09 07:38:25;;;;;;;15.68;3.47;;;6.10;99.90;;;;;;5096401;27;20718;-74
2022/01/09 07:40:51;;;;;;;12.60;2.70;;;6.00;99.90;;;;;;5132774;27;20031;-71
2022/01/09 07:43:18;;;;;;;14.30;2.25;;;6.30;99.90;;;;;;5133230;27;20048;-72
2022/01/09 07:45:43;;;;;;;15.73;2.30;;;6.30;99.90;;;;;;5133187;27;20117;-74
2022/01/09 07:48:09;;;;;;;10.45;2.10;;;6.00;99.90;;;;;;5110889;28;20586;-75
2022/01/09 07:50:35;;;;;;;12.40;2.85;;;6.00;99.90;;;;;;5128721;27;20098;-74
2022/01/09 07:53:01;;;;;;;10.93;1.85;;;6.20;99.90;;;;;;5131899;27;20042;-74
2022/01/09 07:55:27;;;;;;;16.38;2.13;;;6.30;99.90;;;;;;5133143;27;20053;-74
2022/01/09 07:57:52;;;;;;;14.82;2.63;;;5.90;99.90;;;;;;5132246;27;20038;-76
2022/01/09 08:00:20;;;;;;;19.90;3.13;;;5.90;99.90;;;;;;5098325;27;20099;-75
2022/01/09 08:02:46;;;;;;;14.10;2.15;;;6.00;99.90;;;;;;5131543;27;20616;-74
2022/01/09 08:05:13;;;;;;;13.98;2.65;;;6.10;99.90;;;;;;5146543;27;20035;-74
2022/01/09 08:07:39;;;;;;;19.77;3.38;;;5.90;99.90;;;;;;5111037;28;20039;-77
2022/01/09 08:10:06;;;;;;;16.23;3.47;;;6.10;99.90;;;;;;5128992;27;20054;-73
2022/01/09 08:12:31;;;;;;;19.75;2.78;;;6.10;99.90;;;;;;5114370;27;20034;-71
2022/01/09 08:14:57;;;;;;;16.45;2.70;;;5.90;99.90;;;;;;5089930;28;20762;-70
2022/01/09 08:17:23;;;;;;;17.02;3.15;;;6.20;99.90;;;;;;5114898;27;20058;-73
2022/01/09 08:19:48;;;;;;;11.27;1.98;;;6.40;99.90;;;;;;5131731;27;20031;-72
2022/01/09 08:22:15;;;;;;;16.98;2.63;;;5.90;99.90;;;;;;5106512;27;20035;-71
2022/01/09 08:24:41;;;;;;;13.68;3.50;;;5.90;99.90;;;;;;5113350;27;20023;-69
2022/01/09 08:27:07;;;;;;;10.63;3.15;;;5.80;99.90;;;;;;5104948;27;20041;-71
2022/01/09 08:29:34;;;;;;;14.77;2.65;;;6.10;99.90;;;;;;5082228;27;20057;-73
2022/01/09 08:32:00;;;;;;;13.05;2.17;;;5.80;99.90;;;;;;5132410;27;20030;-75
2022/01/09 08:34:26;;;;;;;15.25;2.75;;;6.10;99.90;;;;;;5126640;27;20039;-75
2022/01/09 08:36:52;;;;;;;11.70;2.75;;;5.80;99.90;;;;;;5130155;27;20103;-76
2022/01/09 08:39:18;;;;;;;12.25;2.53;;;5.80;99.90;;;;;;5116092;27;20055;-76
2022/01/09 08:41:44;;;;;;;13.05;2.60;;;6.00;99.90;;;;;;5131576;27;20050;-73
2022/01/09 08:44:10;;;;;;;12.07;2.28;;;6.00;99.90;;;;;;5131827;27;20055;-70
2022/01/09 08:46:36;;;;;;;12.07;2.67;;;5.90;99.90;;;;;;5132262;27;20030;-73
2022/01/09 08:49:03;;;;;;;15.68;3.60;;;6.00;99.90;;;;;;5131999;27;20070;-73
2022/01/09 08:51:29;;;;;;;15.25;3.70;;;6.00;99.90;;;;;;5114608;27;20042;-72
2022/01/09 08:53:57;;;;;;;15.75;2.25;;;6.00;99.90;;;;;;5131417;27;20394;-71
2022/01/09 08:56:24;;;;;;;11.32;2.00;;;5.70;99.90;;;;;;5114098;27;20520;-75
2022/01/09 08:58:50;;;;;;;16.83;2.65;;;5.90;99.90;;;;;;5131707;27;20039;-74
2022/01/09 09:01:17;;;;;;;11.40;2.47;;;5.70;99.90;;;;;;5081476;27;20091;-74
2022/01/09 09:03:43;;;;;;;13.98;3.50;;;5.90;99.90;;;;;;5134896;27;20113;-71
2022/01/09 09:06:14;;;;;;;12.40;2.20;;;5.70;99.90;;;;;;5135327;27;20034;-74
2022/01/09 09:08:41;;;;;;;13.50;2.35;;;5.80;99.90;;;;;;5110997;27;20050;-71
2022/01/09 09:11:08;;;;;;;8.18;2.10;;;5.80;99.90;;;;;;5128717;27;20070;-73
2022/01/09 09:13:36;;;;;;;12.43;1.98;;;6.00;99.90;;;;;;5110316;27;20044;-71
2022/01/09 09:16:02;;;;;;;11.55;2.20;;;5.90;99.90;;;;;;5114900;27;20500;-74
2022/01/09 09:18:28;;;;;;;14.63;2.75;;;5.80;99.90;;;;;;5112899;27;20059;-72
2022/01/09 09:20:55;;;;;;;20.50;3.83;;;5.90;99.90;;;;;;5114045;27;20560;-71
2022/01/09 09:23:21;;;;;;;12.05;2.38;;;6.00;99.90;;;;;;5131404;27;20027;-72
2022/01/09 09:25:47;;;;;;;11.45;1.83;;;6.00;99.90;;;;;;5113903;27;20054;-74
2022/01/09 09:28:13;;;;;;;8.05;1.83;;;6.10;99.90;;;;;;5097824;27;20031;-73
2022/01/09 09:30:39;;;;;;;14.05;2.42;;;5.90;99.90;;;;;;5122450;27;20058;-73
2022/01/09 09:33:05;;;;;;;13.20;2.70;;;5.90;99.90;;;;;;5124457;27;20038;-74
2022/01/09 09:35:31;;;;;;;10.38;2.08;;;6.20;99.90;;;;;;5125487;27;20054;-73
2022/01/09 09:37:57;;;;;;;7.47;1.77;;;6.30;99.90;;;;;;5124745;27;20053;-73
2022/01/09 09:40:24;;;;;;;7.85;2.03;;;6.10;99.90;;;;;;5125444;27;20044;-73
2022/01/09 09:42:50;;;;;;;7.32;1.73;;;6.30;99.90;;;;;;5124059;27;20047;-73
2022/01/09 09:45:16;;;;;;;12.00;2.42;;;6.20;99.90;;;;;;5108886;27;20116;-71
2022/01/09 09:47:41;;;;;;;11.13;2.33;;;6.20;99.90;;;;;;5123613;27;20035;-71
2022/01/09 09:50:10;;;;;;;8.45;1.95;;;6.20;99.90;;;;;;5102693;27;20034;-71
2022/01/09 09:52:36;;;;;;;7.95;1.95;;;6.30;99.90;;;;;;5126119;27;20076;-73
2022/01/09 09:55:04;;;;;;;8.60;1.83;;;6.10;99.90;;;;;;5108377;27;20046;-71
2022/01/09 09:57:30;;;;;;;6.22;1.77;;;6.20;99.90;;;;;;5126287;27;20035;-70
2022/01/09 10:00:08;;;;;;;8.90;2.30;;;6.10;99.90;;;;;;5074546;27;20038;-71
2022/01/09 10:02:50;;;;;;;11.55;2.05;;;6.20;99.90;;;;;;5126336;27;20158;-71
2022/01/09 10:05:21;;;;;;;7.93;2.03;;;6.20;99.90;;;;;;5119375;27;20546;-71
2022/01/09 10:07:47;;;;;;;12.88;3.20;;;6.30;99.90;;;;;;5116913;27;20035;-70
2022/01/09 10:10:16;;;;;;;10.90;2.92;;;6.00;99.90;;;;;;5111232;27;20042;-71
2022/01/09 10:12:44;;;;;;;6.75;1.65;;;6.20;99.90;;;;;;5128129;27;20125;-74
2022/01/09 10:15:18;;;;;;;5.90;1.70;;;6.10;99.90;;;;;;5120684;27;20041;-72
2022/01/09 10:17:47;;;;;;;14.32;1.80;;;6.10;99.90;;;;;;5128096;27;20539;-74
2022/01/09 10:20:17;;;;;;;11.88;2.40;;;6.00;99.90;;;;;;5129305;27;20038;-70
2022/01/09 10:22:48;;;;;;;7.45;2.45;;;6.30;99.90;;;;;;5128130;27;20035;-72
2022/01/09 10:25:32;;;;;;;8.95;1.73;;;6.30;99.90;;;;;;5112117;27;20038;-71
2022/01/09 10:28:20;;;;;;;9.00;1.50;;;6.10;99.90;;;;;;5127010;27;20134;-70
2022/01/09 10:30:47;;;;;;;6.72;1.77;;;6.00;99.90;;;;;;5111641;27;20047;-72
2022/01/09 10:33:16;;;;;;;6.10;1.50;;;6.10;99.90;;;;;;5110705;27;20039;-69
2022/01/09 10:35:45;;;;;;;13.02;3.15;;;6.30;99.90;;;;;;5110402;27;20046;-71
2022/01/09 10:38:12;;;;;;;6.65;1.55;;;6.20;99.90;;;;;;5128434;27;20047;-75
2022/01/09 10:40:40;;;;;;;9.30;1.90;;;6.30;99.90;;;;;;5110416;27;20102;-70
2022/01/09 10:43:08;;;;;;;6.43;1.67;;;6.20;99.90;;;;;;5111046;27;20395;-71
2022/01/09 10:45:36;;;;;;;10.95;2.20;;;6.10;99.90;;;;;;5127945;27;20720;-70
2022/01/09 10:48:09;;;;;;;12.52;2.58;;;6.30;99.90;;;;;;5112871;27;20470;-72
2022/01/09 10:50:38;;;;;;;6.40;2.13;;;6.50;99.90;;;;;;5128330;27;20121;-74
2022/01/09 10:53:22;;;;;;;7.30;1.98;;;6.60;99.90;;;;;;5127896;27;20121;-70
2022/01/09 10:56:00;;;;;;;8.02;1.80;;;6.70;99.90;;;;;;5127222;27;20099;-71
2022/01/09 10:58:27;;;;;;;8.55;2.33;;;6.70;99.90;;;;;;5125529;27;20034;-70
2022/01/09 11:01:08;;;;;;;11.40;1.92;;;6.90;99.90;;;;;;5110721;27;20398;-72
2022/01/09 11:03:34;;;;;;;5.80;1.50;;;7.10;99.90;;;;;;5110826;27;20492;-70
2022/01/09 11:06:01;;;;;;;15.05;2.92;;;7.00;99.90;;;;;;5127117;27;20121;-70
2022/01/09 11:08:29;;;;;;;12.88;2.72;;;7.20;99.90;;;;;;5126515;27;20054;-70
2022/01/09 11:10:57;;;;;;;11.60;2.00;;;7.20;99.90;;;;;;5126355;27;20107;-71
2022/01/09 11:13:25;;;;;;;8.68;2.65;;;6.90;99.90;;;;;;5107841;27;20049;-70
2022/01/09 11:18:39;;;;;;;12.15;3.03;;;6.50;99.90;;;;;;5126709;27;20046;-67
2022/01/09 11:21:05;;;;;;;11.88;3.25;;;6.30;99.90;;;;;;5126611;27;20043;-70
2022/01/09 11:24:18;;;;;;;8.27;1.90;;;6.30;99.90;;;;;;5125166;27;20039;-71
2022/01/09 11:27:25;;;;;;;11.95;2.20;;;6.30;99.90;;;;;;5125537;27;20436;-71
2022/01/09 11:30:09;;;;;;;9.15;1.85;;;6.20;99.90;;;;;;5118525;27;20031;-69
2022/01/09 11:33:11;;;;;;;10.48;2.00;;;6.30;99.90;;;;;;5124408;27;20099;-70
2022/01/09 11:36:06;;;;;;;9.18;2.17;;;6.30;99.90;;;;;;5117573;27;20434;-74
2022/01/09 11:38:48;;;;;;;9.50;2.08;;;6.40;99.90;;;;;;5063031;27;20046;-74
2022/01/09 11:41:24;;;;;;;7.00;1.67;;;6.40;99.90;;;;;;5119934;27;20043;-73
2022/01/09 11:44:05;;;;;;;9.65;2.13;;;6.30;99.90;;;;;;5105679;27;20062;-71
2022/01/09 11:47:02;;;;;;;9.93;1.95;;;6.50;99.90;;;;;;5098466;27;20051;-72
2022/01/09 11:49:36;;;;;;;7.03;1.73;;;6.50;99.90;;;;;;5108051;27;20394;-70
2022/01/09 11:52:02;;;;;;;6.57;1.48;;;6.40;99.90;;;;;;5122932;27;20061;-73
2022/01/09 11:54:45;;;;;;;10.82;1.40;;;6.60;99.90;;;;;;5125855;27;20050;-73
2022/01/09 11:57:14;;;;;;;8.32;1.90;;;6.60;99.90;;;;;;5097702;27;20042;-71
2022/01/09 11:59:45;;;;;;;10.70;1.95;;;6.60;99.90;;;;;;5109869;27;20371;-73
2022/01/09 12:02:17;;;;;;;11.07;2.05;;;6.60;99.90;;;;;;5126449;27;20398;-69
2022/01/09 12:04:43;;;;;;;6.30;1.70;;;6.60;99.90;;;;;;5110197;27;20554;-71
2022/01/09 12:07:30;;;;;;;9.10;2.38;;;6.70;99.90;;;;;;5126577;27;20070;-73
2022/01/09 12:09:55;;;;;;;9.20;1.92;;;6.70;99.90;;;;;;5063748;27;20640;-71
2022/01/09 12:12:33;;;;;;;13.45;1.80;;;6.70;99.90;;;;;;5096099;27;20058;-72
2022/01/09 12:15:04;;;;;;;12.32;2.97;;;6.60;99.90;;;;;;5126155;27;20074;-68
2022/01/09 12:17:40;;;;;;;9.07;2.13;;;6.70;99.90;;;;;;5093018;27;20498;-73
2022/01/09 12:20:13;;;;;;;13.07;2.30;;;6.70;99.90;;;;;;5123909;27;20078;-73
2022/01/09 12:23:24;;;;;;;9.05;2.15;;;6.80;99.90;;;;;;5100332;27;20081;-74
2022/01/09 12:25:25;;;;;;;11.10;2.00;;;6.90;99.90;;;;;;5116150;27;20042;-71
2022/01/09 12:28:04;;;;;;;16.52;2.00;;;6.80;99.90;;;;;;5123713;27;20829;-73
2022/01/09 12:30:33;;;;;;;11.43;3.25;;;6.90;99.90;;;;;;5127014;27;20104;-71
2022/01/09 12:33:09;;;;;;;10.25;2.88;;;6.90;99.90;;;;;;5125832;27;20038;-72
2022/01/09 12:35:43;;;;;;;6.95;1.98;;;6.90;99.90;;;;;;5129600;27;20125;-71
2022/01/09 12:38:14;;;;;;;10.02;1.77;;;6.90;99.90;;;;;;5129625;27;20046;-71
2022/01/09 12:40:41;;;;;;;11.02;2.30;;;7.00;99.90;;;;;;5130915;27;20050;-73
2022/01/09 12:43:07;;;;;;;5.70;1.88;;;7.10;99.90;;;;;;5130135;27;20051;-73
2022/01/09 12:45:40;;;;;;;8.77;1.77;;;7.20;99.90;;;;;;5130258;27;20073;-73
2022/01/09 12:48:06;;;;;;;9.05;2.10;;;7.10;99.90;;;;;;5129789;27;20038;-71
2022/01/09 12:50:39;;;;;;;10.32;2.95;;;7.10;99.90;;;;;;5111800;27;20051;-75
2022/01/09 12:53:13;;;;;;;8.85;1.98;;;7.10;99.90;;;;;;5130151;27;20482;-72
2022/01/09 12:56:01;;;;;;;8.40;1.87;;;7.30;99.90;;;;;;5113322;27;20053;-73